• Join FlightAware (Why Join?)
  • Login
  • US Flag 
11:32AM EST


 

Airport Tracker/Info


-or-


 

Live Flight TrackerFlight Track Log ✈ N424AG ✈ 13-Jun-2013 ✈ KIOW - KESC

Flight Track Log - Related Links

Times and Time Zones

All times are in EDT time to prevent confusion due to time zone crossing. See the N424AG flight status page for this flight to view local times or setup timezone preferences in your user account.

Time Position Orientation Groundspeed Altitude Reporting Facility
EDT Latitude Longitude Course Direction KTS MPH feet Rate Location/Type
06:02PM 41.7006 -91.5492 37° Northeast 118 136 3,400  Level Chicago Center
06:03PM 41.7267 -91.5247 35° Northeast 118 136 4,000 600 Climbing Chicago Center
06:04PM 41.7522 -91.4986 37° Northeast 117 135 4,700 600 Climbing Chicago Center
06:05PM 41.7781 -91.4717 38° Northeast 117 135 5,300 540 Climbing Chicago Center
06:06PM 41.8403 -91.3264 37° Northeast  Level FlightAware Approximate
06:06PM 41.8039 -91.4458 37° Northeast 118 136 5,900  Level Chicago Center
06:07PM 41.8748 -91.2919 37° Northeast  Level FlightAware Approximate
06:07PM 41.8344 -91.4169 35° Northeast 115 132 6,700  Level Chicago Center
06:08PM 41.8619 -91.3886 37° Northeast 120 138 7,000 120 Climbing Chicago Center
06:09PM 41.8944 -91.3567 36° Northeast 135 155 7,000  Level Chicago Center
06:10PM 41.9292 -91.3200 38° Northeast 153 176 7,000 420 Level Chicago Center
06:11PM 41.9642 -91.2833 38° Northeast 142 163 7,900 600 Climbing Chicago Center
06:12PM 41.9889 -91.2583 37° Northeast 121 139 8,300 480 Climbing Chicago Center
06:13PM 42.0136 -91.2333 37° Northeast 115 132 8,900 300 Climbing Chicago Center
06:14PM 42.0394 -91.2067 37° Northeast 116 133 9,000  Climbing Chicago Center
06:15PM 42.0711 -91.1747 37° Northeast 131 151 9,000  Level Chicago Center
06:16PM 42.1103 -91.1331 38° Northeast 145 167 9,000  Level Chicago Center
06:17PM 42.1422 -91.1003 37° Northeast 147 169 9,000  Level Chicago Center
06:18PM 42.1744 -91.0669 37° Northeast 147 169 9,000  Level Chicago Center
06:19PM 42.2067 -91.0331 38° Northeast 148 170 9,000  Level Chicago Center
06:20PM 42.2383 -91.0008 37° Northeast 146 168 9,000  Level Chicago Center
06:21PM 42.2758 -90.9625 37° Northeast 145 167 9,000  Level Chicago Center
06:22PM 42.3075 -90.9300 37° Northeast 145 167 9,000  Level Chicago Center
06:23PM 42.3397 -90.8958 38° Northeast 147 169 9,000  Level Chicago Center
06:24PM 42.3722 -90.8622 37° Northeast 148 170 9,000  Level Chicago Center
06:25PM 42.4103 -90.8222 38° Northeast 146 168 9,000  Level Chicago Center
06:26PM 42.4436 -90.7869 38° Northeast 152 175 9,000  Level Chicago Center
06:28PM 42.4764 -90.7539 37° Northeast 151 174 9,000  Level Chicago Center
06:29PM 42.5083 -90.7206 38° Northeast 148 170 9,000  Level Chicago Center
06:30PM 42.5406 -90.6853 39° Northeast 150 173 9,000  Level Chicago Center
06:31PM 42.5794 -90.6447 38° Northeast 148 170 9,000  Level Chicago Center
06:32PM 42.6133 -90.6097 37° Northeast 152 175 9,000  Level Chicago Center
06:33PM 42.6450 -90.5761 38° Northeast 148 170 9,000  Level Chicago Center
06:34PM 42.6761 -90.5414 39° Northeast 147 169 9,000  Level Chicago Center
06:35PM 42.7156 -90.5017 36° Northeast 148 170 9,000  Level Chicago Center
06:36PM 42.7478 -90.4667 39° Northeast 149 171 9,000  Level Chicago Center
06:37PM 42.7817 -90.4319 37° Northeast 153 176 9,000  Level Chicago Center
06:38PM 42.8131 -90.3983 38° Northeast 148 170 9,000  Level Chicago Center
06:39PM 42.8456 -90.3633 38° Northeast 149 171 9,000  Level Chicago Center
06:40PM 42.8853 -90.3211 38° Northeast 152 175 9,000  Level Chicago Center
06:41PM 42.9192 -90.2867 37° Northeast 152 175 9,000  Level Chicago Center
06:42PM 42.9503 -90.2511 40° Northeast 149 171 9,000  Level Chicago Center
06:43PM 42.9831 -90.2164 38° Northeast 150 173 9,000  Level Chicago Center
06:44PM 43.0153 -90.1819 38° Northeast 148 170 9,000  Level Chicago Center
06:45PM 43.0539 -90.1411 38° Northeast 148 170 9,000  Level Chicago Center
06:46PM 43.0858 -90.1083 37° Northeast 146 168 9,000  Level Chicago Center
06:47PM 43.1161 -90.0731 40° Northeast 145 167 9,000  Level Chicago Center
06:48PM 43.1497 -90.0375 38° Northeast 142 163 9,000  Level Chicago Center
06:49PM 43.1806 -90.0039 38° Northeast 141 162 9,000  Level Chicago Center
06:50PM 43.2119 -89.9694 39° Northeast 143 165 9,000  Level Chicago Center
06:51PM 43.2503 -89.9292 37° Northeast 146 168 9,000  Level Chicago Center
06:52PM 43.2806 -89.8953 39° Northeast 143 165 9,000  Level Chicago Center
06:53PM 43.3131 -89.8600 38° Northeast 145 167 9,000  Level Chicago Center
06:54PM 43.3439 -89.8253 39° Northeast 145 167 9,000  Level Chicago Center
06:55PM 43.3767 -89.7917 37° Northeast 145 167 9,000  Level Chicago Center
06:56PM 43.4078 -89.7569 39° Northeast 145 167 9,000  Level Chicago Center
06:58PM 43.4439 -89.7161 39° Northeast 144 166 9,000  Level Chicago Center
06:59PM 43.4761 -89.6808 38° Northeast 146 168 9,000  Level Chicago Center
07:00PM 43.5078 -89.6481 37° Northeast 144 166 9,000  Level Chicago Center
07:01PM 43.5378 -89.6144 39° Northeast 141 162 9,000  Level Chicago Center
07:02PM 43.5694 -89.5800 38° Northeast 143 165 9,000  Level Chicago Center
07:03PM 43.6058 -89.5397 39° Northeast 142 163 9,000  Level Chicago Center
07:04PM 43.6369 -89.5058 38° Northeast 142 163 9,000  Level Chicago Center
07:05PM 43.6678 -89.4711 39° Northeast 142 163 9,000  Level Chicago Center
07:06PM 43.6989 -89.4369 38° Northeast 143 165 9,000  Level Chicago Center
07:07PM 43.7314 -89.4031 37° Northeast 144 166 9,000  Level Chicago Center
07:08PM 43.7669 -89.3611 40° Northeast 144 166 9,000  Level Chicago Center
07:09PM 43.7978 -89.3275 38° Northeast 142 163 9,000  Level Chicago Center
07:10PM 43.8292 -89.2922 39° Northeast 144 166 9,000  Level Chicago Center
07:11PM 43.8597 -89.2583 39° Northeast 142 163 9,000  Level Chicago Center
07:12PM 43.8911 -89.2250 37° Northeast 141 162 9,000  Level Chicago Center
07:13PM 43.9219 -89.1894 40° Northeast 143 165 9,000  Level Chicago Center
07:14PM 43.9583 -89.1492 39° Northeast 143 165 9,000  Level Chicago Center
07:15PM 43.9883 -89.1147 40° Northeast 142 163 9,000  Level Chicago Center
07:16PM 44.0194 -89.0800 39° Northeast 142 163 9,000  Level Chicago Center
07:17PM 44.0497 -89.0469 38° Northeast 141 162 9,000  Level Chicago Center
07:18PM 44.0800 -89.0114 40° Northeast 141 162 9,000  Level Chicago Center
07:19PM 44.1169 -88.9714 38° Northeast 143 165 9,000  Level Chicago Center
07:20PM 44.1264 -88.9578 46° Northeast 140 161 9,000  Level Minneapolis Center
07:21PM 44.1578 -88.9233 38° Northeast 143 165 9,000  Level Minneapolis Center
07:22PM 44.1881 -88.8881 40° Northeast 143 165 9,000  Level Minneapolis Center
07:23PM 44.2178 -88.8528 40° Northeast 141 162 9,000  Level Minneapolis Center
07:24PM 44.2536 -88.8128 39° Northeast 141 162 9,000  Level Minneapolis Center
07:25PM 44.2844 -88.7772 40° Northeast 142 163 9,000  Level Minneapolis Center
07:26PM 44.3156 -88.7428 38° Northeast 142 163 9,000  Level Minneapolis Center
07:27PM 44.3458 -88.7075 40° Northeast 142 163 9,000  Level Minneapolis Center
07:28PM 44.3756 -88.6756 38° Northeast 139 160 9,000  Level Minneapolis Center
07:29PM 44.4103 -88.6361 39° Northeast 137 158 9,000  Level Minneapolis Center
07:30PM 44.4419 -88.6006 39° Northeast 142 163 9,000  Level Minneapolis Center
07:31PM 44.4708 -88.5675 39° Northeast 138 159 9,000  Level Minneapolis Center
07:32PM 44.5014 -88.5333 39° Northeast 139 160 9,000  Level Minneapolis Center
07:33PM 44.5308 -88.4983 40° Northeast 139 160 9,000  Level Minneapolis Center
07:34PM 44.5661 -88.4586 39° Northeast 138 159 9,000  Level Minneapolis Center
07:35PM 44.5964 -88.4242 39° Northeast 139 160 9,000  Level Minneapolis Center
07:36PM 44.6261 -88.3894 40° Northeast 139 160 9,000  Level Minneapolis Center
07:37PM 44.6564 -88.3542 40° Northeast 139 160 9,000  Level Minneapolis Center
07:38PM 44.6869 -88.3197 39° Northeast 141 162 9,000  Level Minneapolis Center
07:39PM 44.7172 -88.2850 39° Northeast 140 161 9,000  Level Minneapolis Center
07:40PM 44.7519 -88.2442 40° Northeast 140 161 9,000  Level Minneapolis Center
07:41PM 44.7808 -88.2094 40° Northeast 140 161 9,000  Level Minneapolis Center
07:42PM 44.8111 -88.1744 39° Northeast 141 162 9,000  Level Minneapolis Center
07:43PM 44.8414 -88.1406 38° Northeast 138 159 9,000  Level Minneapolis Center
07:45PM 44.8717 -88.1058 39° Northeast 140 161 9,000  Level Minneapolis Center
07:46PM 44.9067 -88.0628 41° Northeast 139 160 9,000  Level Minneapolis Center
07:47PM 44.9367 -88.0286 39° Northeast 138 159 9,000  Level Minneapolis Center
07:48PM 44.9675 -87.9942 38° Northeast 140 161 9,000  Level Minneapolis Center
07:49PM 44.9969 -87.9594 40° Northeast 139 160 9,000  Level Minneapolis Center
07:50PM 45.0269 -87.9239 40° Northeast 140 161 9,000 -60 Level Minneapolis Center
07:51PM 45.0567 -87.8894 39° Northeast 139 160 8,900 -60 Descending Minneapolis Center
07:52PM 45.0919 -87.8475 40° Northeast 137 158 8,900  Level Minneapolis Center
07:53PM 45.1217 -87.8128 39° Northeast 139 160 8,900  Level Minneapolis Center
07:54PM 45.1522 -87.7764 40° Northeast 143 165 8,900 -240 Level Minneapolis Center
07:55PM 45.1836 -87.7394 40° Northeast 148 170 8,400 -480 Descending Minneapolis Center
07:56PM 45.2183 -87.6981 40° Northeast 160 184 7,900 -300 Descending Minneapolis Center
07:57PM 45.2511 -87.6600 39° Northeast 155 178 7,800 -360 Descending Minneapolis Center
07:58PM 45.2892 -87.6131 41° Northeast 151 174 7,200 -600 Descending Minneapolis Center
08:00PM 45.3317 -87.5478 38° Northeast  Level FlightAware Approximate
08:07PM 45.5393 -87.2940 35° Northeast  Level FlightAware Approximate
08:08PM 45.5702 -87.2581 41° Northeast  Level FlightAware Approximate
08:09PM 45.6002 -87.2206 41° Northeast  Level FlightAware Approximate
08:10PM 45.6301 -87.1832 41° Northeast  Level FlightAware Approximate
08:11PM 45.6601 -87.1457 41° Northeast  Level FlightAware Approximate
08:12PM 45.6908 -87.1093 35° Northeast  Level FlightAware Approximate
08:13PM 45.7167 -87.0833 35° Northeast  Level FlightAware Approximate
08:14PM 45.7227 -87.0937 35° Northeast  Level Estimated
08:15PM 45.7227 -87.0937 35° Northeast  Level Estimated
08:16PM 45.7227 -87.0937 35° Northeast  Level Estimated
08:17PM 45.7227 -87.0937 35° Northeast  Level Estimated
08:18PM 45.7227 -87.0937 35° Northeast  Level Estimated
08:19PM 45.7227 -87.0937 35° Northeast  Level Estimated
08:20PM 45.7227 -87.0937 35° Northeast  Level Estimated
08:21PM 45.7227 -87.0937 35° Northeast  Level Estimated
08:22PM 45.7227 -87.0937 35° Northeast  Level Estimated
08:23PM 45.7227 -87.0937 35° Northeast  Level Estimated
08:24PM 45.7227 -87.0937 35° Northeast  Level Estimated
08:25PM 45.7227 -87.0937 35° Northeast  Level Estimated
08:26PM 45.7227 -87.0937 35° Northeast  Level Estimated
08:27PM 45.7227 -87.0937 35° Northeast  Level Estimated